Main page
METAR-TAF:

METAR-TAF

Airports :

Split, Croatia

Split Airport

latitude: 43-32N, longitude: 016-18E, elevation: 19 m

Current weather observation

The report was made 16 minutes ago, at 01:30 UTC
Wind 4 kt from the North/Northwest
Temperature 16°C
Humidity 72%
Pressure 1018 hPa
Visibility 10 km or more

METAR: LDSP 260130Z AUTO 34004KT 9999 SCT078/// 16/11 Q1018

Time: 03:46 (01:46 UTC)

Forecast

The report was made 2 hours and 21 minutes ago, at 23:25 UTC
Forecast valid from 26 at 00 UTC to 27 at 00 UTC
Wind 5 kt from the North/Northwest
Visibility 10 km or more
no clouds below 1500 m and no cumulonimbus
Becoming
from 26 at 10 UTC to 26 at 12 UTC
Wind 8 kt from the Southwest
Becoming
from 26 at 14 UTC to 26 at 16 UTC
Wind 5 kt from the West/Northwest

TAF: LDSP 252325Z 2600/2700 33005KT CAVOK TX23/2611Z TN12/2604Z BECMG 2610/2612 23008KT BECMG 2614/2616 30005KT

Weather observations and forecasts of more than 4000 airports (METAR and TAF reports).

The available stations are represented by yellow and red dots on the map.

Hover mouse over dot to see the name of the station.

Then click to see weather observations and forecasts.

To change the map : click on the green buttons with a black cross to zoom in, on the green button with a dash to zoom out, or on the green arrows for adjacent maps.


METAR-TAF: